sensor_id;sensor_type;location;lat;lon;timestamp;temperature;humidity
12708;DHT22;6418;50.824;4.718;2022-12-08T00:01:14;3.90;99.90
12708;DHT22;6418;50.824;4.718;2022-12-08T00:03:41;3.90;99.90
12708;DHT22;6418;50.824;4.718;2022-12-08T00:06:18;3.90;99.90
12708;DHT22;6418;50.824;4.718;2022-12-08T00:09:04;3.90;99.90
12708;DHT22;6418;50.824;4.718;2022-12-08T00:11:55;3.90;99.90
12708;DHT22;6418;50.824;4.718;2022-12-08T00:14:23;3.80;99.90
12708;DHT22;6418;50.824;4.718;2022-12-08T00:16:51;3.80;99.90
12708;DHT22;6418;50.824;4.718;2022-12-08T00:19:18;3.80;99.90
12708;DHT22;6418;50.824;4.718;2022-12-08T00:21:46;3.90;99.90
12708;DHT22;6418;50.824;4.718;2022-12-08T00:24:13;3.80;99.90
12708;DHT22;6418;50.824;4.718;2022-12-08T00:26:40;3.80;99.90
12708;DHT22;6418;50.824;4.718;2022-12-08T00:29:07;3.80;99.90
12708;DHT22;6418;50.824;4.718;2022-12-08T00:31:34;3.80;99.90
12708;DHT22;6418;50.824;4.718;2022-12-08T00:34:02;3.80;99.90
12708;DHT22;6418;50.824;4.718;2022-12-08T00:36:29;3.70;99.90
12708;DHT22;6418;50.824;4.718;2022-12-08T00:38:58;3.70;99.90
12708;DHT22;6418;50.824;4.718;2022-12-08T00:41:26;3.70;99.90
12708;DHT22;6418;50.824;4.718;2022-12-08T00:44:12;4.90;99.90
12708;DHT22;6418;50.824;4.718;2022-12-08T00:46:40;3.70;99.90
12708;DHT22;6418;50.824;4.718;2022-12-08T00:49:07;3.70;99.90
12708;DHT22;6418;50.824;4.718;2022-12-08T00:51:34;3.70;99.90
12708;DHT22;6418;50.824;4.718;2022-12-08T00:54:03;3.70;99.90
12708;DHT22;6418;50.824;4.718;2022-12-08T00:56:30;3.90;99.90
12708;DHT22;6418;50.824;4.718;2022-12-08T00:58:57;3.60;99.90
12708;DHT22;6418;50.824;4.718;2022-12-08T01:01:25;3.60;99.90
12708;DHT22;6418;50.824;4.718;2022-12-08T01:03:52;4.50;99.90
12708;DHT22;6418;50.824;4.718;2022-12-08T01:06:19;3.60;99.90
12708;DHT22;6418;50.824;4.718;2022-12-08T01:08:46;3.60;99.90
12708;DHT22;6418;50.824;4.718;2022-12-08T01:11:16;3.60;99.90
12708;DHT22;6418;50.824;4.718;2022-12-08T01:13:43;3.50;99.90
12708;DHT22;6418;50.824;4.718;2022-12-08T01:16:19;3.50;99.90
12708;DHT22;6418;50.824;4.718;2022-12-08T01:18:47;3.50;99.90
12708;DHT22;6418;50.824;4.718;2022-12-08T01:21:13;3.50;99.90
12708;DHT22;6418;50.824;4.718;2022-12-08T01:23:41;3.50;99.90
12708;DHT22;6418;50.824;4.718;2022-12-08T01:26:10;3.50;99.90
12708;DHT22;6418;50.824;4.718;2022-12-08T01:28:40;3.50;99.90
12708;DHT22;6418;50.824;4.718;2022-12-08T01:31:10;3.50;99.90
12708;DHT22;6418;50.824;4.718;2022-12-08T01:33:38;3.50;99.90
12708;DHT22;6418;50.824;4.718;2022-12-08T01:36:05;3.50;99.90
12708;DHT22;6418;50.824;4.718;2022-12-08T01:38:32;3.40;99.90
12708;DHT22;6418;50.824;4.718;2022-12-08T01:40:59;3.40;99.90
12708;DHT22;6418;50.824;4.718;2022-12-08T01:43:53;3.40;99.90
12708;DHT22;6418;50.824;4.718;2022-12-08T01:46:20;3.40;99.90
12708;DHT22;6418;50.824;4.718;2022-12-08T01:48:48;3.40;99.90
12708;DHT22;6418;50.824;4.718;2022-12-08T01:51:15;3.40;99.90
12708;DHT22;6418;50.824;4.718;2022-12-08T01:53:42;3.30;99.90
12708;DHT22;6418;50.824;4.718;2022-12-08T01:56:12;3.30;99.90
12708;DHT22;6418;50.824;4.718;2022-12-08T01:58:44;3.30;99.90
12708;DHT22;6418;50.824;4.718;2022-12-08T02:01:14;3.30;99.90
12708;DHT22;6418;50.824;4.718;2022-12-08T02:03:46;3.30;99.90
12708;DHT22;6418;50.824;4.718;2022-12-08T02:06:14;3.30;99.90
12708;DHT22;6418;50.824;4.718;2022-12-08T02:08:42;3.30;99.90
12708;DHT22;6418;50.824;4.718;2022-12-08T02:11:11;3.30;99.90
12708;DHT22;6418;50.824;4.718;2022-12-08T02:13:39;3.30;99.90
12708;DHT22;6418;50.824;4.718;2022-12-08T02:16:11;3.30;99.90
12708;DHT22;6418;50.824;4.718;2022-12-08T02:18:53;3.20;99.90
12708;DHT22;6418;50.824;4.718;2022-12-08T02:21:27;3.20;99.90
12708;DHT22;6418;50.824;4.718;2022-12-08T02:24:01;3.20;99.90
12708;DHT22;6418;50.824;4.718;2022-12-08T02:35:34;3.20;99.90
12708;DHT22;6418;50.824;4.718;2022-12-08T02:38:08;3.30;99.90
12708;DHT22;6418;50.824;4.718;2022-12-08T02:40:41;3.10;99.90
12708;DHT22;6418;50.824;4.718;2022-12-08T02:43:15;3.10;99.90
12708;DHT22;6418;50.824;4.718;2022-12-08T02:45:45;3.10;99.90
12708;DHT22;6418;50.824;4.718;2022-12-08T02:48:14;3.10;99.90
12708;DHT22;6418;50.824;4.718;2022-12-08T02:50:42;3.10;99.90
12708;DHT22;6418;50.824;4.718;2022-12-08T02:53:09;3.10;99.90
12708;DHT22;6418;50.824;4.718;2022-12-08T02:55:45;3.10;99.90
12708;DHT22;6418;50.824;4.718;2022-12-08T02:58:37;3.10;99.90
12708;DHT22;6418;50.824;4.718;2022-12-08T03:01:18;3.00;99.90
12708;DHT22;6418;50.824;4.718;2022-12-08T03:03:52;3.10;99.90
12708;DHT22;6418;50.824;4.718;2022-12-08T03:06:28;3.10;99.90
12708;DHT22;6418;50.824;4.718;2022-12-08T03:09:00;3.10;99.90
12708;DHT22;6418;50.824;4.718;2022-12-08T03:11:33;3.00;99.90
12708;DHT22;6418;50.824;4.718;2022-12-08T03:14:04;3.00;99.90
12708;DHT22;6418;50.824;4.718;2022-12-08T03:16:37;2.90;99.90
12708;DHT22;6418;50.824;4.718;2022-12-08T03:19:08;2.90;99.90
12708;DHT22;6418;50.824;4.718;2022-12-08T03:21:38;2.90;99.90
12708;DHT22;6418;50.824;4.718;2022-12-08T03:24:07;2.80;99.90
12708;DHT22;6418;50.824;4.718;2022-12-08T03:26:42;2.80;99.90
12708;DHT22;6418;50.824;4.718;2022-12-08T03:29:11;2.80;99.90
12708;DHT22;6418;50.824;4.718;2022-12-08T03:31:41;2.80;99.90
12708;DHT22;6418;50.824;4.718;2022-12-08T03:34:12;2.70;99.90
12708;DHT22;6418;50.824;4.718;2022-12-08T03:36:42;2.70;99.90
12708;DHT22;6418;50.824;4.718;2022-12-08T03:39:09;2.70;99.90
12708;DHT22;6418;50.824;4.718;2022-12-08T03:41:36;2.70;99.90
12708;DHT22;6418;50.824;4.718;2022-12-08T03:44:03;2.70;99.90
12708;DHT22;6418;50.824;4.718;2022-12-08T03:46:31;2.70;99.90
12708;DHT22;6418;50.824;4.718;2022-12-08T03:48:58;2.80;99.90
12708;DHT22;6418;50.824;4.718;2022-12-08T03:51:25;2.70;99.90
12708;DHT22;6418;50.824;4.718;2022-12-08T03:53:54;2.70;99.90
12708;DHT22;6418;50.824;4.718;2022-12-08T03:56:23;2.70;99.90
12708;DHT22;6418;50.824;4.718;2022-12-08T03:58:50;2.70;99.90
12708;DHT22;6418;50.824;4.718;2022-12-08T04:01:17;3.70;99.90
12708;DHT22;6418;50.824;4.718;2022-12-08T04:03:44;2.70;99.90
12708;DHT22;6418;50.824;4.718;2022-12-08T04:06:11;3.20;99.90
12708;DHT22;6418;50.824;4.718;2022-12-08T04:08:38;2.80;99.90
12708;DHT22;6418;50.824;4.718;2022-12-08T04:11:07;2.70;99.90
12708;DHT22;6418;50.824;4.718;2022-12-08T04:13:35;2.80;99.90
12708;DHT22;6418;50.824;4.718;2022-12-08T04:16:03;2.80;99.90
12708;DHT22;6418;50.824;4.718;2022-12-08T04:18:29;2.80;99.90
12708;DHT22;6418;50.824;4.718;2022-12-08T04:20:56;2.80;99.90
12708;DHT22;6418;50.824;4.718;2022-12-08T04:23:23;2.80;99.90
12708;DHT22;6418;50.824;4.718;2022-12-08T04:25:51;2.80;99.90
12708;DHT22;6418;50.824;4.718;2022-12-08T04:28:19;2.80;99.90
12708;DHT22;6418;50.824;4.718;2022-12-08T04:30:47;2.80;99.90
12708;DHT22;6418;50.824;4.718;2022-12-08T04:33:14;2.80;99.90
12708;DHT22;6418;50.824;4.718;2022-12-08T04:35:41;2.80;99.90
12708;DHT22;6418;50.824;4.718;2022-12-08T04:38:08;2.80;99.90
12708;DHT22;6418;50.824;4.718;2022-12-08T04:40:35;2.80;99.90
12708;DHT22;6418;50.824;4.718;2022-12-08T04:43:02;2.80;99.90
12708;DHT22;6418;50.824;4.718;2022-12-08T04:45:30;2.80;99.90
12708;DHT22;6418;50.824;4.718;2022-12-08T04:47:57;2.80;99.90
12708;DHT22;6418;50.824;4.718;2022-12-08T04:50:24;2.80;99.90
12708;DHT22;6418;50.824;4.718;2022-12-08T04:52:51;3.60;99.90
12708;DHT22;6418;50.824;4.718;2022-12-08T04:55:18;2.80;99.90
12708;DHT22;6418;50.824;4.718;2022-12-08T04:57:45;2.80;99.90
12708;DHT22;6418;50.824;4.718;2022-12-08T05:00:13;2.90;99.90
12708;DHT22;6418;50.824;4.718;2022-12-08T05:02:41;2.80;99.90
12708;DHT22;6418;50.824;4.718;2022-12-08T05:05:09;2.80;99.90
12708;DHT22;6418;50.824;4.718;2022-12-08T05:07:35;2.80;99.90
12708;DHT22;6418;50.824;4.718;2022-12-08T05:10:03;2.90;99.90
12708;DHT22;6418;50.824;4.718;2022-12-08T05:12:30;2.90;99.90
12708;DHT22;6418;50.824;4.718;2022-12-08T05:14:57;2.90;99.90
12708;DHT22;6418;50.824;4.718;2022-12-08T05:17:23;2.80;99.90
12708;DHT22;6418;50.824;4.718;2022-12-08T05:19:52;2.80;99.90
12708;DHT22;6418;50.824;4.718;2022-12-08T05:22:19;2.80;99.90
12708;DHT22;6418;50.824;4.718;2022-12-08T05:24:46;2.80;99.90
12708;DHT22;6418;50.824;4.718;2022-12-08T05:27:12;3.90;99.90
12708;DHT22;6418;50.824;4.718;2022-12-08T05:29:39;2.80;99.90
12708;DHT22;6418;50.824;4.718;2022-12-08T05:32:06;2.80;99.90
12708;DHT22;6418;50.824;4.718;2022-12-08T05:34:33;2.80;99.90
12708;DHT22;6418;50.824;4.718;2022-12-08T05:37:01;2.80;99.90
12708;DHT22;6418;50.824;4.718;2022-12-08T05:39:28;2.70;99.90
12708;DHT22;6418;50.824;4.718;2022-12-08T05:41:55;2.80;99.90
12708;DHT22;6418;50.824;4.718;2022-12-08T05:44:22;2.70;99.90
12708;DHT22;6418;50.824;4.718;2022-12-08T05:46:49;2.70;99.90
12708;DHT22;6418;50.824;4.718;2022-12-08T05:49:16;2.80;99.90
12708;DHT22;6418;50.824;4.718;2022-12-08T05:51:43;2.70;99.90
12708;DHT22;6418;50.824;4.718;2022-12-08T05:54:12;2.70;99.90
12708;DHT22;6418;50.824;4.718;2022-12-08T05:56:39;2.70;99.90
12708;DHT22;6418;50.824;4.718;2022-12-08T05:59:06;2.70;99.90
12708;DHT22;6418;50.824;4.718;2022-12-08T06:01:34;2.70;99.90
12708;DHT22;6418;50.824;4.718;2022-12-08T06:04:02;2.70;99.90
12708;DHT22;6418;50.824;4.718;2022-12-08T06:06:30;2.70;99.90
12708;DHT22;6418;50.824;4.718;2022-12-08T06:08:57;2.60;99.90
12708;DHT22;6418;50.824;4.718;2022-12-08T06:11:28;2.60;99.90
12708;DHT22;6418;50.824;4.718;2022-12-08T06:13:56;2.60;99.90
12708;DHT22;6418;50.824;4.718;2022-12-08T06:16:24;2.60;99.90
12708;DHT22;6418;50.824;4.718;2022-12-08T06:18:52;2.60;99.90
12708;DHT22;6418;50.824;4.718;2022-12-08T06:21:19;2.60;99.90
12708;DHT22;6418;50.824;4.718;2022-12-08T06:23:47;2.60;99.90
12708;DHT22;6418;50.824;4.718;2022-12-08T06:26:15;2.60;99.90
12708;DHT22;6418;50.824;4.718;2022-12-08T06:28:43;2.60;99.90
12708;DHT22;6418;50.824;4.718;2022-12-08T06:31:14;2.60;99.90
12708;DHT22;6418;50.824;4.718;2022-12-08T06:33:41;2.60;99.90
12708;DHT22;6418;50.824;4.718;2022-12-08T06:36:09;2.60;99.90
12708;DHT22;6418;50.824;4.718;2022-12-08T06:38:37;2.70;99.90
12708;DHT22;6418;50.824;4.718;2022-12-08T06:41:04;2.70;99.90
12708;DHT22;6418;50.824;4.718;2022-12-08T06:43:32;2.60;99.90
12708;DHT22;6418;50.824;4.718;2022-12-08T06:46:04;2.60;99.90
12708;DHT22;6418;50.824;4.718;2022-12-08T06:48:32;2.60;99.90
12708;DHT22;6418;50.824;4.718;2022-12-08T06:51:05;2.60;99.90
12708;DHT22;6418;50.824;4.718;2022-12-08T06:53:32;2.60;99.90
12708;DHT22;6418;50.824;4.718;2022-12-08T06:55:59;2.60;99.90
12708;DHT22;6418;50.824;4.718;2022-12-08T06:58:26;2.60;99.90
12708;DHT22;6418;50.824;4.718;2022-12-08T07:00:53;2.60;99.90
12708;DHT22;6418;50.824;4.718;2022-12-08T07:03:21;2.50;99.90
12708;DHT22;6418;50.824;4.718;2022-12-08T07:05:48;2.50;99.90
12708;DHT22;6418;50.824;4.718;2022-12-08T07:08:15;2.50;99.90
12708;DHT22;6418;50.824;4.718;2022-12-08T07:10:42;2.50;99.90
12708;DHT22;6418;50.824;4.718;2022-12-08T07:13:09;2.50;99.90
12708;DHT22;6418;50.824;4.718;2022-12-08T07:15:36;2.50;99.90
12708;DHT22;6418;50.824;4.718;2022-12-08T07:18:03;2.50;99.90
12708;DHT22;6418;50.824;4.718;2022-12-08T07:20:31;2.50;99.90
12708;DHT22;6418;50.824;4.718;2022-12-08T07:22:58;2.40;99.90
12708;DHT22;6418;50.824;4.718;2022-12-08T07:25:25;2.40;99.90
12708;DHT22;6418;50.824;4.718;2022-12-08T07:27:52;2.40;99.90
12708;DHT22;6418;50.824;4.718;2022-12-08T07:30:19;2.40;99.90
12708;DHT22;6418;50.824;4.718;2022-12-08T07:32:46;2.40;99.90
12708;DHT22;6418;50.824;4.718;2022-12-08T07:35:13;2.40;99.90
12708;DHT22;6418;50.824;4.718;2022-12-08T07:37:41;2.40;99.90
12708;DHT22;6418;50.824;4.718;2022-12-08T07:40:09;2.40;99.90
12708;DHT22;6418;50.824;4.718;2022-12-08T07:42:36;2.40;99.90
12708;DHT22;6418;50.824;4.718;2022-12-08T07:45:03;2.40;99.90
12708;DHT22;6418;50.824;4.718;2022-12-08T07:47:30;2.40;99.90
12708;DHT22;6418;50.824;4.718;2022-12-08T07:49:57;2.40;99.90
12708;DHT22;6418;50.824;4.718;2022-12-08T07:52:24;2.40;99.90
12708;DHT22;6418;50.824;4.718;2022-12-08T07:54:52;2.40;99.90
12708;DHT22;6418;50.824;4.718;2022-12-08T07:57:19;2.30;99.90
12708;DHT22;6418;50.824;4.718;2022-12-08T07:59:46;2.50;99.90
12708;DHT22;6418;50.824;4.718;2022-12-08T08:02:16;2.40;99.90
12708;DHT22;6418;50.824;4.718;2022-12-08T08:04:43;2.40;99.90
12708;DHT22;6418;50.824;4.718;2022-12-08T08:07:10;2.40;99.90
12708;DHT22;6418;50.824;4.718;2022-12-08T08:09:37;2.40;99.90
12708;DHT22;6418;50.824;4.718;2022-12-08T08:12:05;2.40;99.90
12708;DHT22;6418;50.824;4.718;2022-12-08T08:14:32;2.40;99.90
12708;DHT22;6418;50.824;4.718;2022-12-08T08:16:59;2.40;99.90
12708;DHT22;6418;50.824;4.718;2022-12-08T08:19:26;3.40;99.90
12708;DHT22;6418;50.824;4.718;2022-12-08T08:21:53;2.50;99.90
12708;DHT22;6418;50.824;4.718;2022-12-08T08:24:20;2.40;99.90
12708;DHT22;6418;50.824;4.718;2022-12-08T08:26:49;2.50;99.90
12708;DHT22;6418;50.824;4.718;2022-12-08T08:29:19;2.50;99.90
12708;DHT22;6418;50.824;4.718;2022-12-08T08:31:46;2.50;99.90
12708;DHT22;6418;50.824;4.718;2022-12-08T08:34:13;2.50;99.90
12708;DHT22;6418;50.824;4.718;2022-12-08T08:36:40;2.80;99.90
12708;DHT22;6418;50.824;4.718;2022-12-08T08:39:07;2.50;99.90
12708;DHT22;6418;50.824;4.718;2022-12-08T08:41:34;2.60;99.90
12708;DHT22;6418;50.824;4.718;2022-12-08T08:44:01;2.50;99.90
12708;DHT22;6418;50.824;4.718;2022-12-08T08:46:29;2.60;99.90
12708;DHT22;6418;50.824;4.718;2022-12-08T08:48:56;2.50;99.90
12708;DHT22;6418;50.824;4.718;2022-12-08T08:51:23;2.60;99.90
12708;DHT22;6418;50.824;4.718;2022-12-08T08:53:50;2.60;99.90
12708;DHT22;6418;50.824;4.718;2022-12-08T08:56:18;2.60;99.90
12708;DHT22;6418;50.824;4.718;2022-12-08T08:58:47;2.60;99.90
12708;DHT22;6418;50.824;4.718;2022-12-08T09:01:15;2.60;99.90
12708;DHT22;6418;50.824;4.718;2022-12-08T09:03:44;2.70;99.90
12708;DHT22;6418;50.824;4.718;2022-12-08T09:06:11;2.70;99.90
12708;DHT22;6418;50.824;4.718;2022-12-08T09:08:39;2.80;99.90
12708;DHT22;6418;50.824;4.718;2022-12-08T09:11:07;2.70;99.90
12708;DHT22;6418;50.824;4.718;2022-12-08T09:13:34;2.80;99.90
12708;DHT22;6418;50.824;4.718;2022-12-08T09:16:01;2.80;99.90
12708;DHT22;6418;50.824;4.718;2022-12-08T09:18:29;2.80;99.90
12708;DHT22;6418;50.824;4.718;2022-12-08T09:21:03;2.80;99.90
12708;DHT22;6418;50.824;4.718;2022-12-08T09:23:29;2.80;99.90
12708;DHT22;6418;50.824;4.718;2022-12-08T09:25:57;2.80;99.90
12708;DHT22;6418;50.824;4.718;2022-12-08T09:28:23;2.90;99.90
12708;DHT22;6418;50.824;4.718;2022-12-08T09:30:51;2.90;99.90
12708;DHT22;6418;50.824;4.718;2022-12-08T09:33:18;2.90;99.90
12708;DHT22;6418;50.824;4.718;2022-12-08T09:35:45;2.90;99.90
12708;DHT22;6418;50.824;4.718;2022-12-08T09:38:13;2.90;99.90
12708;DHT22;6418;50.824;4.718;2022-12-08T09:40:47;2.90;99.90
12708;DHT22;6418;50.824;4.718;2022-12-08T09:43:27;3.00;99.90
12708;DHT22;6418;50.824;4.718;2022-12-08T09:46:00;3.00;99.90
12708;DHT22;6418;50.824;4.718;2022-12-08T09:48:31;3.10;99.90
12708;DHT22;6418;50.824;4.718;2022-12-08T09:50:59;3.10;99.90
12708;DHT22;6418;50.824;4.718;2022-12-08T09:53:33;3.10;99.90
12708;DHT22;6418;50.824;4.718;2022-12-08T09:56:04;3.10;99.90
12708;DHT22;6418;50.824;4.718;2022-12-08T09:58:43;3.20;99.90
12708;DHT22;6418;50.824;4.718;2022-12-08T10:01:12;3.20;99.90
12708;DHT22;6418;50.824;4.718;2022-12-08T10:03:39;3.20;99.90
12708;DHT22;6418;50.824;4.718;2022-12-08T10:06:12;3.50;99.90
12708;DHT22;6418;50.824;4.718;2022-12-08T10:08:51;3.30;99.90
12708;DHT22;6418;50.824;4.718;2022-12-08T10:11:25;3.30;99.90
12708;DHT22;6418;50.824;4.718;2022-12-08T10:14:02;3.30;99.90
12708;DHT22;6418;50.824;4.718;2022-12-08T10:16:34;3.30;99.90
12708;DHT22;6418;50.824;4.718;2022-12-08T10:19:10;3.30;99.90
12708;DHT22;6418;50.824;4.718;2022-12-08T10:21:39;3.30;99.90
12708;DHT22;6418;50.824;4.718;2022-12-08T10:24:15;3.30;99.90
12708;DHT22;6418;50.824;4.718;2022-12-08T10:26:44;3.40;99.90
12708;DHT22;6418;50.824;4.718;2022-12-08T10:29:13;3.40;99.90
12708;DHT22;6418;50.824;4.718;2022-12-08T10:31:40;3.40;99.90
12708;DHT22;6418;50.824;4.718;2022-12-08T10:34:16;3.40;99.90
12708;DHT22;6418;50.824;4.718;2022-12-08T10:36:46;3.50;99.90
12708;DHT22;6418;50.824;4.718;2022-12-08T10:39:33;3.50;99.90
12708;DHT22;6418;50.824;4.718;2022-12-08T10:42:06;3.60;99.90
12708;DHT22;6418;50.824;4.718;2022-12-08T10:44:37;3.60;99.90
12708;DHT22;6418;50.824;4.718;2022-12-08T10:47:13;3.60;99.90
12708;DHT22;6418;50.824;4.718;2022-12-08T10:49:41;3.70;99.90
12708;DHT22;6418;50.824;4.718;2022-12-08T10:52:09;3.70;99.90
12708;DHT22;6418;50.824;4.718;2022-12-08T10:54:52;3.70;99.90
12708;DHT22;6418;50.824;4.718;2022-12-08T10:57:21;3.70;99.90
12708;DHT22;6418;50.824;4.718;2022-12-08T10:59:53;3.80;99.90
12708;DHT22;6418;50.824;4.718;2022-12-08T11:02:20;3.80;99.90
12708;DHT22;6418;50.824;4.718;2022-12-08T11:04:55;3.80;99.90
12708;DHT22;6418;50.824;4.718;2022-12-08T11:07:25;3.90;99.90
12708;DHT22;6418;50.824;4.718;2022-12-08T11:09:55;3.90;99.90
12708;DHT22;6418;50.824;4.718;2022-12-08T11:12:27;4.00;99.90
12708;DHT22;6418;50.824;4.718;2022-12-08T11:14:56;4.00;99.90
12708;DHT22;6418;50.824;4.718;2022-12-08T11:17:28;4.10;99.90
12708;DHT22;6418;50.824;4.718;2022-12-08T11:20:03;4.10;99.90
12708;DHT22;6418;50.824;4.718;2022-12-08T11:22:45;4.10;99.90
12708;DHT22;6418;50.824;4.718;2022-12-08T11:25:17;4.10;99.90
12708;DHT22;6418;50.824;4.718;2022-12-08T11:27:48;4.10;99.90
12708;DHT22;6418;50.824;4.718;2022-12-08T11:30:17;4.10;99.90
12708;DHT22;6418;50.824;4.718;2022-12-08T11:32:45;4.10;99.90
12708;DHT22;6418;50.824;4.718;2022-12-08T11:35:19;4.10;99.90
12708;DHT22;6418;50.824;4.718;2022-12-08T11:37:48;4.00;99.90
12708;DHT22;6418;50.824;4.718;2022-12-08T11:40:20;4.00;99.90
12708;DHT22;6418;50.824;4.718;2022-12-08T11:42:53;4.00;99.90
12708;DHT22;6418;50.824;4.718;2022-12-08T11:45:26;4.00;99.90
12708;DHT22;6418;50.824;4.718;2022-12-08T11:48:02;4.00;99.90
12708;DHT22;6418;50.824;4.718;2022-12-08T11:50:39;4.10;99.90
12708;DHT22;6418;50.824;4.718;2022-12-08T11:53:14;4.40;99.90
12708;DHT22;6418;50.824;4.718;2022-12-08T11:55:48;4.10;99.90
12708;DHT22;6418;50.824;4.718;2022-12-08T11:58:19;4.20;99.90
12708;DHT22;6418;50.824;4.718;2022-12-08T12:00:47;4.20;99.90
12708;DHT22;6418;50.824;4.718;2022-12-08T12:03:21;4.20;99.90
12708;DHT22;6418;50.824;4.718;2022-12-08T12:06:13;4.20;99.90
12708;DHT22;6418;50.824;4.718;2022-12-08T12:08:51;4.30;99.90
12708;DHT22;6418;50.824;4.718;2022-12-08T12:11:32;4.30;99.90
12708;DHT22;6418;50.824;4.718;2022-12-08T12:14:33;4.30;99.90
12708;DHT22;6418;50.824;4.718;2022-12-08T12:17:24;4.30;99.90
12708;DHT22;6418;50.824;4.718;2022-12-08T12:19:56;4.40;99.90
12708;DHT22;6418;50.824;4.718;2022-12-08T12:22:28;4.30;99.90
12708;DHT22;6418;50.824;4.718;2022-12-08T12:24:58;4.30;99.90
12708;DHT22;6418;50.824;4.718;2022-12-08T12:27:30;4.30;99.90
12708;DHT22;6418;50.824;4.718;2022-12-08T12:30:02;4.30;99.90
12708;DHT22;6418;50.824;4.718;2022-12-08T12:32:40;4.30;99.90
12708;DHT22;6418;50.824;4.718;2022-12-08T12:35:15;4.40;99.90
12708;DHT22;6418;50.824;4.718;2022-12-08T12:37:42;4.40;99.90
12708;DHT22;6418;50.824;4.718;2022-12-08T12:40:16;4.40;99.90
12708;DHT22;6418;50.824;4.718;2022-12-08T12:42:47;4.40;99.90
12708;DHT22;6418;50.824;4.718;2022-12-08T12:45:35;4.50;99.90
12708;DHT22;6418;50.824;4.718;2022-12-08T12:48:23;4.50;99.90
12708;DHT22;6418;50.824;4.718;2022-12-08T12:50:52;4.60;99.90
12708;DHT22;6418;50.824;4.718;2022-12-08T12:53:45;4.60;99.90
12708;DHT22;6418;50.824;4.718;2022-12-08T12:56:46;4.70;99.90
12708;DHT22;6418;50.824;4.718;2022-12-08T12:59:45;4.90;99.90
12708;DHT22;6418;50.824;4.718;2022-12-08T13:02:23;5.00;99.90
12708;DHT22;6418;50.824;4.718;2022-12-08T13:04:58;5.00;99.90
12708;DHT22;6418;50.824;4.718;2022-12-08T13:07:30;5.10;99.90
12708;DHT22;6418;50.824;4.718;2022-12-08T13:10:00;5.10;99.90
12708;DHT22;6418;50.824;4.718;2022-12-08T13:12:29;5.10;99.90
12708;DHT22;6418;50.824;4.718;2022-12-08T13:15:02;5.10;99.90
12708;DHT22;6418;50.824;4.718;2022-12-08T13:17:32;5.20;99.90
12708;DHT22;6418;50.824;4.718;2022-12-08T13:20:01;5.20;99.90
12708;DHT22;6418;50.824;4.718;2022-12-08T13:23:00;5.10;99.90
12708;DHT22;6418;50.824;4.718;2022-12-08T13:25:45;5.20;99.90
12708;DHT22;6418;50.824;4.718;2022-12-08T13:28:21;5.20;99.90
12708;DHT22;6418;50.824;4.718;2022-12-08T13:30:50;5.10;99.90
12708;DHT22;6418;50.824;4.718;2022-12-08T13:33:22;5.20;99.90
12708;DHT22;6418;50.824;4.718;2022-12-08T13:36:00;5.10;99.90
12708;DHT22;6418;50.824;4.718;2022-12-08T13:38:30;5.20;99.90
12708;DHT22;6418;50.824;4.718;2022-12-08T13:41:02;5.10;99.90
12708;DHT22;6418;50.824;4.718;2022-12-08T13:43:36;5.10;99.90
12708;DHT22;6418;50.824;4.718;2022-12-08T13:46:07;5.20;99.90
12708;DHT22;6418;50.824;4.718;2022-12-08T13:48:43;5.20;99.90
12708;DHT22;6418;50.824;4.718;2022-12-08T13:51:15;5.20;99.90
12708;DHT22;6418;50.824;4.718;2022-12-08T13:53:49;5.20;99.90
12708;DHT22;6418;50.824;4.718;2022-12-08T13:56:21;5.20;99.90
12708;DHT22;6418;50.824;4.718;2022-12-08T13:58:48;5.50;99.90
12708;DHT22;6418;50.824;4.718;2022-12-08T14:01:19;5.10;99.90
12708;DHT22;6418;50.824;4.718;2022-12-08T14:03:49;5.10;99.90
12708;DHT22;6418;50.824;4.718;2022-12-08T14:06:19;5.10;99.90
12708;DHT22;6418;50.824;4.718;2022-12-08T14:08:52;5.00;99.90
12708;DHT22;6418;50.824;4.718;2022-12-08T14:11:25;5.10;99.90
12708;DHT22;6418;50.824;4.718;2022-12-08T14:14:01;5.00;99.90
12708;DHT22;6418;50.824;4.718;2022-12-08T14:16:33;5.00;99.90
12708;DHT22;6418;50.824;4.718;2022-12-08T14:19:12;5.00;99.90
12708;DHT22;6418;50.824;4.718;2022-12-08T14:21:40;5.00;99.90
12708;DHT22;6418;50.824;4.718;2022-12-08T14:24:09;4.90;99.90
12708;DHT22;6418;50.824;4.718;2022-12-08T14:26:37;4.90;99.90
12708;DHT22;6418;50.824;4.718;2022-12-08T14:29:06;4.90;99.90
12708;DHT22;6418;50.824;4.718;2022-12-08T14:31:34;4.80;99.90
12708;DHT22;6418;50.824;4.718;2022-12-08T14:34:01;4.80;99.90
12708;DHT22;6418;50.824;4.718;2022-12-08T14:36:28;4.80;99.90
12708;DHT22;6418;50.824;4.718;2022-12-08T14:38:58;4.80;99.90
12708;DHT22;6418;50.824;4.718;2022-12-08T14:41:27;4.70;99.90
12708;DHT22;6418;50.824;4.718;2022-12-08T14:43:58;4.70;99.90
12708;DHT22;6418;50.824;4.718;2022-12-08T14:46:26;4.60;99.90
12708;DHT22;6418;50.824;4.718;2022-12-08T14:48:55;4.60;99.90
12708;DHT22;6418;50.824;4.718;2022-12-08T14:51:27;4.60;99.90
12708;DHT22;6418;50.824;4.718;2022-12-08T14:53:58;4.50;99.90
12708;DHT22;6418;50.824;4.718;2022-12-08T14:56:30;4.50;99.90
12708;DHT22;6418;50.824;4.718;2022-12-08T14:59:04;4.40;99.90
12708;DHT22;6418;50.824;4.718;2022-12-08T15:01:33;4.50;99.90
12708;DHT22;6418;50.824;4.718;2022-12-08T15:04:06;4.40;99.90
12708;DHT22;6418;50.824;4.718;2022-12-08T15:06:34;4.30;99.90
12708;DHT22;6418;50.824;4.718;2022-12-08T15:09:15;4.20;99.90
12708;DHT22;6418;50.824;4.718;2022-12-08T15:11:43;4.10;99.90
12708;DHT22;6418;50.824;4.718;2022-12-08T15:14:28;4.00;99.90
12708;DHT22;6418;50.824;4.718;2022-12-08T15:16:56;4.00;99.90
12708;DHT22;6418;50.824;4.718;2022-12-08T15:19:27;4.00;99.90
12708;DHT22;6418;50.824;4.718;2022-12-08T15:21:56;4.00;99.90
12708;DHT22;6418;50.824;4.718;2022-12-08T15:24:25;4.00;99.90
12708;DHT22;6418;50.824;4.718;2022-12-08T15:26:53;4.00;99.90
12708;DHT22;6418;50.824;4.718;2022-12-08T15:29:22;3.90;99.90
12708;DHT22;6418;50.824;4.718;2022-12-08T15:31:51;3.90;99.90
12708;DHT22;6418;50.824;4.718;2022-12-08T15:34:19;3.90;99.90
12708;DHT22;6418;50.824;4.718;2022-12-08T15:36:49;3.80;99.90
12708;DHT22;6418;50.824;4.718;2022-12-08T15:39:33;3.80;99.90
12708;DHT22;6418;50.824;4.718;2022-12-08T15:42:01;3.80;99.90
12708;DHT22;6418;50.824;4.718;2022-12-08T15:44:29;3.80;99.90
12708;DHT22;6418;50.824;4.718;2022-12-08T15:46:57;3.70;99.90
12708;DHT22;6418;50.824;4.718;2022-12-08T15:49:25;3.70;99.90
12708;DHT22;6418;50.824;4.718;2022-12-08T15:51:53;3.70;99.90
12708;DHT22;6418;50.824;4.718;2022-12-08T15:54:20;3.70;99.90
12708;DHT22;6418;50.824;4.718;2022-12-08T15:56:50;3.60;99.90
12708;DHT22;6418;50.824;4.718;2022-12-08T15:59:19;3.70;99.90
12708;DHT22;6418;50.824;4.718;2022-12-08T16:01:46;3.60;99.90
12708;DHT22;6418;50.824;4.718;2022-12-08T16:04:16;3.60;99.90
12708;DHT22;6418;50.824;4.718;2022-12-08T16:06:46;3.60;99.90
12708;DHT22;6418;50.824;4.718;2022-12-08T16:09:17;3.60;99.90
12708;DHT22;6418;50.824;4.718;2022-12-08T16:11:45;3.60;99.90
12708;DHT22;6418;50.824;4.718;2022-12-08T16:14:30;3.60;99.90
12708;DHT22;6418;50.824;4.718;2022-12-08T16:16:57;3.60;99.90
12708;DHT22;6418;50.824;4.718;2022-12-08T16:19:24;3.60;99.90
12708;DHT22;6418;50.824;4.718;2022-12-08T16:21:51;3.50;99.90
12708;DHT22;6418;50.824;4.718;2022-12-08T16:24:19;3.50;99.90
12708;DHT22;6418;50.824;4.718;2022-12-08T16:26:46;3.50;99.90
12708;DHT22;6418;50.824;4.718;2022-12-08T16:29:17;3.50;99.90
12708;DHT22;6418;50.824;4.718;2022-12-08T16:31:45;4.50;99.90